Charles de Gaulle (CDG/LFPG)




Flight Aircraft Arriving
CPX1154 B738
EBLG - Liège Airport
Belgium Liege, Belgium
Flight Aircraft Departing
CPX1153 B738
EBLG - Liège Airport
Belgium Liege, Belgium
Airport Information
Location: Paris, FR
Coordinates: 49.0097 / 2.54778
Elevation:
Time Offset:
Local Time:
UTC Time:
Jet A Price: $0.95/lbs

Current Weather
METAR: LFPG 270930Z 02009KT CAVOK 06/02 Q1039 NOSIG
TAF: TAF LFPG 270500Z 2706/2812 02008KT CAVOK TX10/2714Z TN02/2706Z PROB30 2706/2707 4000 BR PROB30 2803/2807 3000 BR TEMPO 2805/2807 BKN004

Recent Arrivals
Date Flight Type Depart
10/31/2019 CPX753 B738 Liège Airport (EBLG)
Recent Departures
Date Flight Type Arrive
10/31/2019 CPX754 B738 Liège Airport (EBLG)